Armada, Nebraska
Current Conditions -  °F | °C
As of 8:15 AM on Friday 31 Oct 2014 (Local Time) from KEAR Reporting Station
Overcast Overcast  
Wind Chill: 17°   Ceiling: 1900
Heat Index: 28°   Visibility: 10mi
Dew Point: 21°   Wind: 14mph
Humidity: 74%   Direction: 20°NNE
Pressure: 30.55"   Gusts: NA
Location:  40.9599°N, 99.3688°W
Report Text: KEAR 311315Z 02012KT 10SM OVC019 M02/M06 A3055 RMK AO1
Loading
Personal Weather Stations






























Interactive Weather Map
Tropical Storm Tracking
New forecast layout! Learn more

10-Day Weather Forecast

Advertisements
Track Severe Weather on mobile